createdAt,value
2022-11-26T00:00:42.716Z,19.5
2022-11-26T00:02:42.836Z,19.3
2022-11-26T00:04:42.704Z,19.4
2022-11-26T00:06:42.734Z,19.1
2022-11-26T00:08:43.786Z,19.3
2022-11-26T00:10:42.690Z,19.2
2022-11-26T00:12:42.788Z,19.2
2022-11-26T00:14:42.787Z,19.0
2022-11-26T00:16:42.880Z,18.8
2022-11-26T00:18:42.735Z,18.8
2022-11-26T00:20:42.722Z,19.0
2022-11-26T00:22:42.722Z,19.0
2022-11-26T00:24:42.662Z,19.0
2022-11-26T00:27:12.690Z,19.1
2022-11-26T00:29:12.763Z,19.2
2022-11-26T00:31:12.709Z,19.1
2022-11-26T00:33:12.726Z,18.9
2022-11-26T00:35:12.657Z,18.8
2022-11-26T00:37:12.708Z,19.0
2022-11-26T00:39:12.710Z,18.9
2022-11-26T00:41:12.721Z,19.0
2022-11-26T00:43:12.714Z,19.3
2022-11-26T00:45:12.662Z,19.3
2022-11-26T00:47:12.717Z,19.3
2022-11-26T00:49:12.682Z,19.3
2022-11-26T00:51:12.682Z,19.5
2022-11-26T00:53:12.726Z,19.8
2022-11-26T00:55:12.690Z,20.0
2022-11-26T00:57:12.716Z,19.8
2022-11-26T00:59:12.829Z,19.9
2022-11-26T01:01:12.751Z,19.8
2022-11-26T01:03:12.780Z,19.5
2022-11-26T01:05:12.676Z,19.8
2022-11-26T01:07:12.751Z,19.8
2022-11-26T01:09:12.707Z,19.7
2022-11-26T01:11:13.702Z,19.6
2022-11-26T01:13:12.696Z,19.5
2022-11-26T01:15:12.714Z,19.6
2022-11-26T01:17:12.676Z,19.7
2022-11-26T01:19:13.117Z,20.0
2022-11-26T01:21:12.740Z,19.7
2022-11-26T01:23:12.704Z,19.5
2022-11-26T01:25:12.802Z,19.6
2022-11-26T01:27:12.812Z,19.6
2022-11-26T01:29:12.768Z,19.3
2022-11-26T01:31:12.739Z,19.5
2022-11-26T01:33:12.754Z,19.6
2022-11-26T01:35:12.702Z,19.6
2022-11-26T01:37:12.698Z,19.8
2022-11-26T01:39:12.789Z,19.9
2022-11-26T01:41:12.812Z,19.6
2022-11-26T01:43:12.738Z,19.4
2022-11-26T01:45:12.696Z,19.6
2022-11-26T01:47:12.739Z,19.7
2022-11-26T01:49:12.803Z,19.9
2022-11-26T01:51:12.788Z,19.8
2022-11-26T01:53:12.828Z,19.5
2022-11-26T01:55:12.781Z,19.4
2022-11-26T01:57:12.710Z,19.5
2022-11-26T01:59:12.739Z,19.4
2022-11-26T02:01:12.845Z,19.5
2022-11-26T02:03:12.785Z,19.8
2022-11-26T02:05:12.826Z,19.7
2022-11-26T02:07:12.858Z,19.5
2022-11-26T02:09:12.750Z,19.4
2022-11-26T02:11:12.831Z,19.6
2022-11-26T02:13:12.816Z,19.7
2022-11-26T02:15:12.766Z,19.5
2022-11-26T02:17:12.828Z,19.3
2022-11-26T02:19:12.761Z,19.0
2022-11-26T02:21:42.820Z,19.1
2022-11-26T02:23:42.743Z,19.1
2022-11-26T02:25:42.845Z,19.3
2022-11-26T02:27:42.734Z,19.2
2022-11-26T02:29:42.759Z,19.6
2022-11-26T02:31:42.924Z,19.4
2022-11-26T02:33:42.787Z,19.5
2022-11-26T02:35:42.843Z,19.6
2022-11-26T02:37:42.912Z,19.1
2022-11-26T02:39:42.848Z,19.2
2022-11-26T02:43:42.746Z,19.5
2022-11-26T02:45:23.471Z,19.6
2022-11-26T02:47:23.400Z,19.5
2022-11-26T02:49:23.454Z,19.5
2022-11-26T02:51:23.398Z,19.5
2022-11-26T02:53:23.409Z,19.6
2022-11-26T02:55:23.373Z,19.5
2022-11-26T02:57:23.377Z,19.6
2022-11-26T02:59:23.384Z,19.5
2022-11-26T03:01:53.459Z,19.8
2022-11-26T03:03:53.485Z,19.8
2022-11-26T03:05:53.419Z,19.8
2022-11-26T03:07:53.490Z,19.9
2022-11-26T03:09:53.377Z,20.0
2022-11-26T03:11:53.436Z,19.9
2022-11-26T03:13:53.379Z,20.1
2022-11-26T03:15:53.423Z,20.5
2022-11-26T03:17:53.434Z,20.6
2022-11-26T03:19:53.476Z,20.8
2022-11-26T03:21:53.417Z,21.1
2022-11-26T03:23:53.409Z,21.1
2022-11-26T03:25:53.543Z,21.2
2022-11-26T03:27:53.436Z,21.3
2022-11-26T03:29:53.441Z,20.9
2022-11-26T03:31:53.448Z,20.9
2022-11-26T03:33:53.434Z,20.8
2022-11-26T03:35:53.468Z,20.7
2022-11-26T03:37:53.404Z,20.8
2022-11-26T03:39:53.546Z,20.7
2022-11-26T03:41:53.465Z,20.6
2022-11-26T03:43:53.432Z,20.5
2022-11-26T03:45:53.459Z,20.4
2022-11-26T03:47:53.434Z,20.3
2022-11-26T03:49:53.425Z,20.2
2022-11-26T03:51:53.505Z,20.4
2022-11-26T03:53:53.457Z,20.3
2022-11-26T03:55:53.578Z,20.6
2022-11-26T03:57:53.462Z,20.8
2022-11-26T03:59:53.454Z,20.9
2022-11-26T04:01:53.487Z,20.9
2022-11-26T04:03:53.422Z,20.9
2022-11-26T04:05:53.483Z,21.0
2022-11-26T04:07:53.496Z,21.3
2022-11-26T04:09:53.747Z,21.4
2022-11-26T04:11:53.423Z,21.4
2022-11-26T04:13:53.478Z,21.2
2022-11-26T04:15:53.418Z,20.8
2022-11-26T04:17:53.454Z,20.8
2022-11-26T04:19:53.430Z,20.6
2022-11-26T04:21:53.539Z,20.6
2022-11-26T04:23:53.437Z,20.8
2022-11-26T04:25:53.449Z,20.6
2022-11-26T04:27:53.486Z,20.3
2022-11-26T04:29:53.460Z,20.5
2022-11-26T04:31:53.473Z,20.5
2022-11-26T04:33:53.483Z,20.6
2022-11-26T04:35:54.521Z,20.6
2022-11-26T04:37:53.492Z,20.5
2022-11-26T04:39:53.561Z,20.3
2022-11-26T04:41:53.442Z,20.2
2022-11-26T04:43:53.429Z,20.3
2022-11-26T04:45:53.531Z,20.4
2022-11-26T04:48:02.483Z,20.0
2022-11-26T04:49:53.490Z,20.0
2022-11-26T04:52:23.439Z,20.0
2022-11-26T04:54:23.528Z,19.8
2022-11-26T04:56:23.465Z,19.5
2022-11-26T04:58:23.465Z,19.4
2022-11-26T05:00:23.510Z,19.6
2022-11-26T05:02:23.535Z,19.5
2022-11-26T05:04:23.483Z,19.4
2022-11-26T05:06:23.485Z,19.1
2022-11-26T05:08:23.477Z,19.0
2022-11-26T05:10:23.496Z,19.1
2022-11-26T05:12:23.455Z,19.0
2022-11-26T05:14:23.484Z,19.1
2022-11-26T05:16:23.539Z,19.4
2022-11-26T05:18:23.519Z,19.4
2022-11-26T05:20:23.468Z,19.5
2022-11-26T05:22:23.571Z,19.6
2022-11-26T05:24:23.464Z,19.4
2022-11-26T05:26:23.596Z,19.5
2022-11-26T05:28:23.481Z,19.5
2022-11-26T05:30:23.556Z,19.3
2022-11-26T05:32:23.518Z,19.0
2022-11-26T05:34:23.519Z,19.3
2022-11-26T05:36:23.496Z,19.5
2022-11-26T05:38:23.500Z,19.8
2022-11-26T05:40:23.650Z,20.0
2022-11-26T05:42:23.452Z,19.7
2022-11-26T05:44:23.510Z,19.6
2022-11-26T05:46:23.477Z,19.7
2022-11-26T05:48:23.473Z,20.0
2022-11-26T05:50:23.568Z,19.5
2022-11-26T05:52:23.475Z,19.7
2022-11-26T05:54:23.505Z,20.0
2022-11-26T05:56:23.642Z,20.2
2022-11-26T05:58:23.517Z,20.0
2022-11-26T06:00:23.493Z,19.7
2022-11-26T06:02:23.770Z,19.7
2022-11-26T06:04:23.489Z,19.8
2022-11-26T06:06:23.642Z,20.0
2022-11-26T06:08:23.517Z,19.9
2022-11-26T06:10:23.524Z,19.6
2022-11-26T06:12:23.641Z,19.6
2022-11-26T06:14:23.523Z,19.8
2022-11-26T06:16:23.562Z,19.9
2022-11-26T06:18:23.567Z,20.0
2022-11-26T06:20:23.505Z,19.8
2022-11-26T06:22:23.537Z,20.0
2022-11-26T06:24:23.632Z,20.0
2022-11-26T06:26:23.504Z,20.1
2022-11-26T06:28:23.562Z,20.0
2022-11-26T06:30:23.499Z,20.0
2022-11-26T06:32:23.564Z,20.3
2022-11-26T06:34:23.528Z,20.4
2022-11-26T06:36:23.608Z,20.4
2022-11-26T06:38:23.497Z,20.4
2022-11-26T06:40:23.533Z,20.3
2022-11-26T06:42:23.663Z,20.4
2022-11-26T06:44:58.343Z,20.6
2022-11-26T06:46:53.570Z,20.7
2022-11-26T06:48:53.567Z,20.6
2022-11-26T06:50:53.504Z,21.1
2022-11-26T06:52:53.500Z,21.1
2022-11-26T06:54:53.533Z,20.9
2022-11-26T06:56:53.563Z,20.8
2022-11-26T06:58:53.498Z,20.8
2022-11-26T07:00:53.515Z,21.1
2022-11-26T07:02:53.604Z,21.0
2022-11-26T07:04:53.586Z,21.0
2022-11-26T07:06:53.512Z,21.0
2022-11-26T07:08:53.532Z,21.0
2022-11-26T07:10:53.524Z,21.3
2022-11-26T07:12:53.655Z,21.5
2022-11-26T07:14:53.541Z,21.3
2022-11-26T07:16:53.578Z,21.0
2022-11-26T07:18:57.696Z,20.6
2022-11-26T07:20:53.636Z,20.6
2022-11-26T07:22:53.520Z,20.2
2022-11-26T07:24:53.554Z,20.0
2022-11-26T07:26:53.522Z,20.0
2022-11-26T07:28:53.577Z,20.0
2022-11-26T07:30:53.562Z,20.2
2022-11-26T07:32:53.588Z,20.5
2022-11-26T07:34:53.536Z,20.2
2022-11-26T07:36:57.887Z,20.2
2022-11-26T07:38:53.594Z,20.1
2022-11-26T07:40:53.558Z,20.1
2022-11-26T07:42:53.561Z,20.2
2022-11-26T07:44:53.610Z,19.8
2022-11-26T07:46:53.599Z,19.6
2022-11-26T07:48:53.531Z,19.9
2022-11-26T07:50:53.577Z,19.7
2022-11-26T07:52:53.583Z,19.6
2022-11-26T07:54:53.621Z,19.5
2022-11-26T07:56:53.571Z,19.4
2022-11-26T07:58:53.541Z,19.6
2022-11-26T08:00:54.953Z,19.3
2022-11-26T08:02:53.712Z,19.3
2022-11-26T08:04:53.606Z,19.1
2022-11-26T08:06:53.686Z,19.1
2022-11-26T08:08:53.733Z,19.0
2022-11-26T08:10:53.595Z,19.0
2022-11-26T08:12:53.585Z,19.2
2022-11-26T08:14:53.602Z,19.3
2022-11-26T08:16:53.662Z,19.5
2022-11-26T08:18:53.646Z,19.7
2022-11-26T08:20:53.621Z,19.6
2022-11-26T08:22:53.625Z,19.7
2022-11-26T08:24:53.571Z,19.8
2022-11-26T08:26:53.601Z,19.7
2022-11-26T08:28:53.715Z,20.2
2022-11-26T08:30:53.569Z,20.3
2022-11-26T08:32:53.683Z,19.7
2022-11-26T08:34:53.658Z,19.8
2022-11-26T08:37:23.645Z,19.8
2022-11-26T08:39:23.557Z,20.1
2022-11-26T08:41:23.645Z,20.1
2022-11-26T08:43:39.596Z,19.9
2022-11-26T08:45:24.854Z,20.2
2022-11-26T08:47:25.655Z,20.0
2022-11-26T08:49:23.621Z,19.6
2022-11-26T08:51:24.672Z,19.7
2022-11-26T08:53:23.693Z,19.5
2022-11-26T08:55:24.070Z,19.7
2022-11-26T08:57:23.578Z,19.8
2022-11-26T08:59:23.620Z,19.9
2022-11-26T09:01:23.670Z,19.9
2022-11-26T09:03:23.706Z,19.8
2022-11-26T09:05:23.585Z,20.0
2022-11-26T09:07:23.988Z,20.2
2022-11-26T09:09:23.594Z,20.3
2022-11-26T09:13:32.275Z,20.0
2022-11-26T09:15:32.238Z,19.9
2022-11-26T09:17:32.766Z,19.8
2022-11-26T09:19:32.322Z,19.9
2022-11-26T09:21:32.311Z,19.9
2022-11-26T09:23:32.328Z,20.3
2022-11-26T09:25:34.875Z,20.5
2022-11-26T09:27:32.226Z,20.1
2022-11-26T09:29:32.238Z,20.5
2022-11-26T09:31:33.356Z,20.5
2022-11-26T09:33:32.256Z,20.5
2022-11-26T09:35:32.193Z,20.6
2022-11-26T09:37:32.306Z,20.7
2022-11-26T09:39:32.210Z,20.4
2022-11-26T09:41:32.182Z,20.5
2022-11-26T09:43:32.209Z,20.4
2022-11-26T09:45:32.240Z,20.3
2022-11-26T09:47:32.288Z,20.5
2022-11-26T09:49:32.321Z,20.7
2022-11-26T09:51:32.293Z,20.5
2022-11-26T09:53:32.238Z,20.9
2022-11-26T09:55:32.324Z,21.0
2022-11-26T09:57:32.241Z,20.6
2022-11-26T09:59:32.298Z,20.7
2022-11-26T10:01:32.323Z,21.1
2022-11-26T10:03:32.230Z,21.6
2022-11-26T10:05:32.326Z,21.6
2022-11-26T10:07:32.256Z,21.4
2022-11-26T10:09:32.330Z,21.4
2022-11-26T10:11:32.270Z,21.4
2022-11-26T10:13:32.292Z,21.4
2022-11-26T10:15:32.188Z,21.5
2022-11-26T10:17:32.375Z,21.4
2022-11-26T10:19:32.347Z,21.5
2022-11-26T10:21:57.173Z,21.5
2022-11-26T10:23:32.373Z,21.2
2022-11-26T10:25:32.217Z,21.2
2022-11-26T10:27:32.319Z,21.1
2022-11-26T10:29:32.286Z,20.5
2022-11-26T10:31:32.324Z,20.6
2022-11-26T10:33:32.289Z,20.6
2022-11-26T10:35:32.296Z,20.4
2022-11-26T10:37:32.300Z,20.0
2022-11-26T10:39:32.224Z,20.0
2022-11-26T10:41:32.262Z,20.0
2022-11-26T10:43:32.267Z,20.1
2022-11-26T10:45:32.216Z,20.2
2022-11-26T10:47:32.298Z,20.4
2022-11-26T10:49:32.315Z,20.5
2022-11-26T10:51:32.304Z,20.6
2022-11-26T10:53:32.237Z,20.6
2022-11-26T10:55:32.282Z,20.4
2022-11-26T10:57:32.327Z,20.7
2022-11-26T11:00:02.272Z,20.4
2022-11-26T11:02:02.338Z,20.0
2022-11-26T11:04:09.140Z,19.9
2022-11-26T11:06:02.305Z,19.9
2022-11-26T11:08:02.449Z,20.0
2022-11-26T11:10:02.256Z,20.0
2022-11-26T11:12:02.239Z,20.0
2022-11-26T11:14:02.260Z,19.9
2022-11-26T11:16:02.400Z,20.1
2022-11-26T11:18:02.306Z,20.0
2022-11-26T11:20:02.338Z,20.0
2022-11-26T11:22:02.308Z,20.1
2022-11-26T11:24:08.664Z,20.2
2022-11-26T11:26:02.386Z,20.2
2022-11-26T11:28:02.471Z,20.5
2022-11-26T11:30:02.323Z,20.5
2022-11-26T11:32:02.513Z,20.4
2022-11-26T11:34:02.356Z,20.4
2022-11-26T11:36:02.404Z,20.7
2022-11-26T11:38:02.337Z,20.7
2022-11-26T11:40:02.390Z,20.8
2022-11-26T11:42:02.450Z,20.8
2022-11-26T11:44:02.426Z,20.7
2022-11-26T11:46:02.365Z,20.6
2022-11-26T11:48:02.386Z,20.7
2022-11-26T11:50:02.359Z,20.3
2022-11-26T11:52:02.384Z,20.4
2022-11-26T11:54:02.412Z,20.5
2022-11-26T11:56:02.801Z,20.5
2022-11-26T11:58:02.447Z,20.7
2022-11-26T12:00:02.349Z,20.5
2022-11-26T12:02:02.380Z,20.6
2022-11-26T12:04:02.481Z,20.6
2022-11-26T12:06:02.383Z,20.7
2022-11-26T12:08:02.406Z,20.6
2022-11-26T12:10:02.413Z,20.6
2022-11-26T12:12:02.339Z,20.7
2022-11-26T12:14:02.402Z,20.5
2022-11-26T12:16:02.328Z,20.2
2022-11-26T12:18:02.351Z,20.1
2022-11-26T12:20:02.352Z,20.0
2022-11-26T12:22:02.380Z,19.8
2022-11-26T12:24:02.273Z,19.7
2022-11-26T12:26:02.462Z,19.8
2022-11-26T12:28:02.292Z,19.8
2022-11-26T12:30:02.428Z,19.7
2022-11-26T12:32:02.415Z,19.7
2022-11-26T12:34:08.215Z,19.7
2022-11-26T12:36:02.371Z,19.5
2022-11-26T12:38:02.390Z,19.7
2022-11-26T12:42:02.368Z,19.6
2022-11-26T12:44:02.349Z,19.7
2022-11-26T12:46:02.398Z,19.5
2022-11-26T12:48:02.939Z,19.3
2022-11-26T12:50:02.411Z,19.4
2022-11-26T12:52:02.409Z,19.3
2022-11-26T12:54:32.402Z,19.1
2022-11-26T12:56:32.489Z,19.0
2022-11-26T12:58:32.469Z,18.7
2022-11-26T13:00:35.928Z,18.9
2022-11-26T13:02:32.415Z,18.9
2022-11-26T13:04:38.372Z,19.2
2022-11-26T13:06:32.422Z,19.0
2022-11-26T13:08:32.463Z,19.0
2022-11-26T13:10:32.417Z,18.8
2022-11-26T13:12:32.372Z,18.7
2022-11-26T13:14:32.428Z,19.0
2022-11-26T13:16:32.504Z,19.1
2022-11-26T13:18:32.361Z,19.4
2022-11-26T13:20:32.707Z,19.5
2022-11-26T13:22:32.446Z,19.5
2022-11-26T13:24:32.470Z,19.2
2022-11-26T13:26:32.461Z,19.1
2022-11-26T13:28:32.438Z,19.2
2022-11-26T13:30:32.461Z,19.3
2022-11-26T13:32:32.421Z,19.3
2022-11-26T13:34:32.413Z,19.3
2022-11-26T13:36:32.414Z,19.5
2022-11-26T13:38:32.353Z,19.2
2022-11-26T13:40:32.396Z,19.5
2022-11-26T13:42:32.495Z,19.4
2022-11-26T13:44:32.427Z,19.4
2022-11-26T13:46:32.386Z,19.5
2022-11-26T13:48:32.360Z,19.4
2022-11-26T13:50:32.408Z,19.5
2022-11-26T13:52:32.368Z,19.3
2022-11-26T13:54:32.487Z,19.3
2022-11-26T13:56:32.476Z,19.5
2022-11-26T13:58:32.487Z,19.8
2022-11-26T14:00:32.488Z,19.6
2022-11-26T14:02:32.450Z,19.7
2022-11-26T14:04:32.353Z,19.4
2022-11-26T14:06:32.461Z,19.4
2022-11-26T14:08:32.507Z,19.0
2022-11-26T14:10:32.486Z,19.1
2022-11-26T14:12:32.395Z,19.2
2022-11-26T14:14:32.414Z,19.2
2022-11-26T14:16:32.548Z,19.5
2022-11-26T14:18:32.349Z,19.4
2022-11-26T14:20:32.481Z,19.1
2022-11-26T14:22:32.493Z,19.0
2022-11-26T14:24:32.367Z,19.1
2022-11-26T14:26:32.404Z,19.2
2022-11-26T14:28:32.601Z,18.9
2022-11-26T14:30:32.403Z,18.5
2022-11-26T14:32:32.431Z,18.5
2022-11-26T14:34:32.407Z,18.5
2022-11-26T14:36:32.574Z,18.3
2022-11-26T14:38:32.681Z,18.5
2022-11-26T14:40:32.368Z,18.2
2022-11-26T14:42:32.507Z,18.3
2022-11-26T14:44:32.408Z,18.1
2022-11-26T14:46:32.369Z,18.3
2022-11-26T14:48:32.394Z,18.5
2022-11-26T14:51:02.485Z,18.5
2022-11-26T14:53:02.578Z,18.5
2022-11-26T14:55:02.458Z,18.2
2022-11-26T14:57:02.486Z,17.8
2022-11-26T14:59:02.525Z,17.9
2022-11-26T15:01:02.532Z,17.9
2022-11-26T15:03:02.485Z,17.9
2022-11-26T15:05:02.448Z,18.0
2022-11-26T15:07:02.461Z,18.3
2022-11-26T15:09:02.487Z,18.3
2022-11-26T15:11:02.510Z,18.3
2022-11-26T15:13:02.487Z,18.2
2022-11-26T15:15:02.428Z,17.9
2022-11-26T15:17:02.523Z,18.0
2022-11-26T15:19:02.491Z,18.1
2022-11-26T15:21:02.483Z,18.0
2022-11-26T15:23:02.473Z,18.5
2022-11-26T15:25:02.495Z,18.3
2022-11-26T15:27:02.517Z,18.5
2022-11-26T15:29:02.510Z,18.9
2022-11-26T15:31:02.659Z,18.9
2022-11-26T15:33:02.494Z,19.0
2022-11-26T15:35:02.516Z,18.9
2022-11-26T15:37:02.521Z,18.9
2022-11-26T15:39:02.538Z,18.7
2022-11-26T15:41:02.536Z,18.8
2022-11-26T15:43:02.523Z,19.0
2022-11-26T15:45:02.443Z,19.1
2022-11-26T15:47:02.574Z,18.7
2022-11-26T15:49:02.477Z,18.9
2022-11-26T15:51:02.576Z,18.8
2022-11-26T15:53:02.505Z,18.8
2022-11-26T15:55:12.660Z,18.8
2022-11-26T15:57:07.788Z,19.0
2022-11-26T15:59:02.570Z,19.1
2022-11-26T16:01:02.586Z,19.0
2022-11-26T16:03:06.328Z,19.1
2022-11-26T16:05:02.504Z,19.0
2022-11-26T16:07:02.501Z,18.9
2022-11-26T16:09:02.497Z,18.9
2022-11-26T16:11:02.502Z,19.0
2022-11-26T16:13:02.450Z,19.1
2022-11-26T16:15:03.541Z,19.4
2022-11-26T16:17:08.065Z,19.2
2022-11-26T16:21:11.133Z,19.3
2022-11-26T16:23:11.102Z,19.0
2022-11-26T16:25:11.164Z,19.3
2022-11-26T16:27:11.057Z,18.9
2022-11-26T16:29:11.083Z,19.0
2022-11-26T16:31:11.187Z,19.2
2022-11-26T16:33:11.122Z,19.2
2022-11-26T16:35:37.429Z,19.2
2022-11-26T16:37:11.123Z,19.5
2022-11-26T16:41:11.048Z,19.7
2022-11-26T16:43:11.054Z,19.6
2022-11-26T16:45:11.054Z,19.6
2022-11-26T16:47:11.105Z,19.9
2022-11-26T16:49:11.102Z,19.5
2022-11-26T16:51:11.137Z,19.6
2022-11-26T16:53:11.125Z,19.8
2022-11-26T16:55:11.041Z,19.7
2022-11-26T16:57:11.037Z,19.8
2022-11-26T16:59:11.070Z,19.6
2022-11-26T17:01:11.149Z,19.6
2022-11-26T17:03:14.264Z,19.5
2022-11-26T17:05:11.158Z,19.5
2022-11-26T17:07:11.158Z,19.4
2022-11-26T17:09:11.145Z,19.3
2022-11-26T17:11:11.098Z,19.0
2022-11-26T17:13:11.074Z,19.2
2022-11-26T17:15:41.164Z,18.9
2022-11-26T17:17:41.086Z,18.8
2022-11-26T17:19:41.324Z,18.7
2022-11-26T17:21:41.057Z,18.8
2022-11-26T17:23:41.184Z,19.0
2022-11-26T17:25:41.216Z,18.8
2022-11-26T17:27:41.057Z,19.0
2022-11-26T17:29:42.871Z,18.6
2022-11-26T17:31:41.130Z,18.5
2022-11-26T17:33:41.102Z,18.6
2022-11-26T17:35:41.115Z,18.9
2022-11-26T17:37:41.107Z,18.6
2022-11-26T17:39:41.478Z,18.5
2022-11-26T17:41:41.147Z,18.4
2022-11-26T17:43:41.213Z,18.4
2022-11-26T17:45:41.283Z,18.3
2022-11-26T17:47:41.146Z,18.3
2022-11-26T17:49:41.337Z,18.4
2022-11-26T17:51:41.171Z,18.3
2022-11-26T17:53:41.150Z,18.4
2022-11-26T17:55:41.091Z,18.5
2022-11-26T17:57:41.131Z,18.1
2022-11-26T17:59:41.523Z,17.9
2022-11-26T18:01:41.167Z,18.3
2022-11-26T18:03:41.139Z,18.5
2022-11-26T18:05:42.377Z,18.7
2022-11-26T18:07:41.131Z,18.9
2022-11-26T18:09:41.532Z,19.3
2022-11-26T18:11:41.040Z,19.4
2022-11-26T18:13:41.171Z,19.3
2022-11-26T18:15:41.127Z,19.4
2022-11-26T18:17:41.142Z,19.4
2022-11-26T18:19:43.734Z,19.6
2022-11-26T18:21:41.170Z,19.4
2022-11-26T18:23:41.104Z,19.2
2022-11-26T18:25:41.159Z,19.2
2022-11-26T18:27:41.086Z,19.3
2022-11-26T18:29:41.378Z,19.3
2022-11-26T18:31:41.168Z,19.5
2022-11-26T18:33:41.162Z,19.6
2022-11-26T18:35:41.142Z,19.4
2022-11-26T18:37:41.175Z,19.7
2022-11-26T18:39:41.425Z,19.8
2022-11-26T18:41:41.106Z,19.5
2022-11-26T18:43:41.156Z,19.5
2022-11-26T18:45:41.193Z,19.7
2022-11-26T18:47:41.196Z,19.7
2022-11-26T18:49:45.967Z,19.8
2022-11-26T18:51:41.202Z,19.9
2022-11-26T18:53:41.148Z,19.8
2022-11-26T18:55:41.190Z,19.9
2022-11-26T18:57:41.147Z,20.0
2022-11-26T18:59:41.499Z,20.2
2022-11-26T19:01:41.205Z,20.0
2022-11-26T19:03:44.108Z,19.8
2022-11-26T19:05:41.199Z,19.8
2022-11-26T19:07:41.225Z,19.4
2022-11-26T19:10:11.134Z,19.4
2022-11-26T19:12:11.126Z,19.6
2022-11-26T19:14:11.145Z,19.5
2022-11-26T19:16:16.041Z,19.5
2022-11-26T19:18:11.203Z,19.5
2022-11-26T19:20:11.093Z,19.6
2022-11-26T19:22:11.188Z,19.6
2022-11-26T19:24:11.215Z,19.6
2022-11-26T19:26:11.138Z,19.5
2022-11-26T19:28:11.163Z,19.5
2022-11-26T19:30:11.190Z,19.4
2022-11-26T19:32:11.187Z,19.1
2022-11-26T19:34:11.208Z,19.2
2022-11-26T19:36:11.109Z,19.2
2022-11-26T19:38:11.197Z,19.0
2022-11-26T19:40:11.138Z,19.2
2022-11-26T19:42:11.169Z,19.2
2022-11-26T19:44:11.240Z,19.3
2022-11-26T19:46:11.219Z,19.3
2022-11-26T19:48:11.225Z,19.2
2022-11-26T19:50:11.278Z,19.4
2022-11-26T19:52:11.125Z,19.3
2022-11-26T19:54:11.216Z,19.2
2022-11-26T19:56:11.124Z,19.4
2022-11-26T19:58:11.213Z,19.3
2022-11-26T20:00:11.155Z,19.0
2022-11-26T20:02:11.251Z,18.8
2022-11-26T20:04:11.187Z,18.9
2022-11-26T20:06:11.308Z,19.1
2022-11-26T20:08:11.286Z,19.1
2022-11-26T20:10:11.239Z,18.8
2022-11-26T20:12:11.186Z,18.6
2022-11-26T20:14:11.166Z,18.5
2022-11-26T20:16:13.791Z,18.9
2022-11-26T20:18:11.194Z,18.7
2022-11-26T20:20:11.110Z,18.7
2022-11-26T20:22:11.142Z,19.0
2022-11-26T20:24:11.245Z,19.0
2022-11-26T20:26:11.162Z,18.9
2022-11-26T20:28:11.242Z,18.9
2022-11-26T20:30:11.225Z,18.9
2022-11-26T20:32:11.193Z,19.0
2022-11-26T20:34:11.219Z,19.0
2022-11-26T20:36:11.254Z,19.1
2022-11-26T20:38:11.204Z,19.3
2022-11-26T20:40:11.154Z,19.4
2022-11-26T20:42:11.174Z,19.8
2022-11-26T20:44:11.464Z,19.5
2022-11-26T20:46:11.229Z,19.4
2022-11-26T20:48:11.376Z,19.5
2022-11-26T20:50:11.209Z,19.6
2022-11-26T20:52:11.303Z,19.6
2022-11-26T20:54:11.240Z,19.4
2022-11-26T20:56:11.146Z,19.4
2022-11-26T20:58:11.445Z,19.3
2022-11-26T21:00:11.236Z,19.2
2022-11-26T21:02:42.206Z,19.3
2022-11-26T21:04:41.256Z,19.1
2022-11-26T21:06:41.292Z,19.0
2022-11-26T21:08:41.241Z,19.1
2022-11-26T21:10:41.168Z,19.5
2022-11-26T21:12:41.204Z,19.4
2022-11-26T21:14:41.246Z,19.3
2022-11-26T21:16:41.290Z,19.1
2022-11-26T21:18:41.295Z,19.4
2022-11-26T21:20:41.220Z,19.3
2022-11-26T21:22:41.289Z,19.2
2022-11-26T21:24:41.263Z,19.0
2022-11-26T21:26:41.197Z,19.1
2022-11-26T21:28:41.297Z,19.1
2022-11-26T21:30:41.251Z,19.2
2022-11-26T21:32:41.248Z,19.1
2022-11-26T21:34:41.296Z,19.3
2022-11-26T21:36:41.287Z,19.0
2022-11-26T21:38:41.233Z,18.9
2022-11-26T21:40:41.197Z,18.7
2022-11-26T21:42:41.248Z,18.4
2022-11-26T21:44:41.258Z,18.4
2022-11-26T21:46:42.307Z,18.5
2022-11-26T21:48:41.339Z,18.3
2022-11-26T21:50:42.190Z,17.9
2022-11-26T21:52:41.277Z,18.0
2022-11-26T21:54:41.191Z,18.3
2022-11-26T21:56:41.362Z,18.4
2022-11-26T21:58:41.310Z,18.8
2022-11-26T22:00:41.290Z,19.0
2022-11-26T22:02:41.364Z,19.0
2022-11-26T22:04:42.175Z,19.0
2022-11-26T22:06:41.256Z,19.2
2022-11-26T22:08:41.204Z,18.8
2022-11-26T22:10:41.218Z,18.6
2022-11-26T22:12:41.209Z,18.6
2022-11-26T22:14:41.222Z,18.7
2022-11-26T22:16:41.264Z,18.9
2022-11-26T22:18:41.343Z,18.8
2022-11-26T22:20:41.333Z,18.8
2022-11-26T22:22:41.326Z,18.6
2022-11-26T22:24:41.207Z,18.8
2022-11-26T22:26:41.345Z,18.8
2022-11-26T22:28:41.464Z,18.6
2022-11-26T22:30:41.372Z,18.5
2022-11-26T22:32:42.436Z,18.8
2022-11-26T22:34:41.200Z,18.5
2022-11-26T22:36:41.255Z,18.5
2022-11-26T22:38:41.335Z,18.7
2022-11-26T22:40:41.363Z,18.8
2022-11-26T22:42:41.163Z,18.9
2022-11-26T22:44:41.188Z,19.2
2022-11-26T22:46:41.314Z,19.0
2022-11-26T22:48:41.254Z,19.2
2022-11-26T22:50:41.204Z,19.4
2022-11-26T22:53:11.220Z,19.5
2022-11-26T22:55:11.236Z,19.5
2022-11-26T22:57:11.176Z,19.4
2022-11-26T22:59:11.291Z,19.1
2022-11-26T23:01:11.325Z,19.3
2022-11-26T23:03:11.514Z,19.2
2022-11-26T23:05:11.385Z,19.5
2022-11-26T23:07:11.396Z,19.6
2022-11-26T23:09:11.267Z,19.6
2022-11-26T23:11:11.331Z,19.5
2022-11-26T23:13:11.210Z,19.5
2022-11-26T23:15:11.241Z,19.7
2022-11-26T23:17:11.422Z,19.6
2022-11-26T23:19:11.360Z,19.6
2022-11-26T23:20:51.486Z,19.5
2022-11-26T23:22:51.582Z,19.5
2022-11-26T23:24:51.625Z,19.6
2022-11-26T23:26:51.492Z,19.8
2022-11-26T23:28:51.541Z,19.9
2022-11-26T23:31:21.594Z,19.8
2022-11-26T23:33:21.538Z,19.8
2022-11-26T23:35:21.596Z,19.9
2022-11-26T23:37:21.530Z,19.6
2022-11-26T23:39:21.522Z,19.7
2022-11-26T23:41:21.470Z,19.8
2022-11-26T23:43:21.537Z,19.8
2022-11-26T23:45:21.478Z,19.9
2022-11-26T23:47:21.534Z,20.0
2022-11-26T23:49:21.493Z,19.9
2022-11-26T23:51:21.586Z,20.3
2022-11-26T23:53:21.492Z,20.3
2022-11-26T23:55:21.528Z,20.5
2022-11-26T23:57:21.604Z,20.2
2022-11-26T23:59:21.480Z,20.6
